Time;durP1;ratioP1;P1;durP2;ratioP2;P2;SDS_P1;SDS_P2;PMS_P1;PMS_P2;Temp;Humidity;BMP_temperature;BMP_pressure;BME280_temperature;BME280_humidity;BME280_pressure;Samples;Min_cycle;Max_cycle;Signal;HPM_P1;HPM_P2
2023/03/05 00:00:26;;;;;;;5.70;1.70;;;6.40;99.90;;;6.12;100.00;101531.69;5141362;28;20046;-67
2023/03/05 00:02:59;;;;;;;7.40;1.80;;;6.40;99.90;;;6.11;100.00;101523.84;5140350;28;20047;-66
2023/03/05 00:05:33;;;;;;;5.90;1.88;;;6.40;99.90;;;6.08;100.00;101526.25;5141752;28;20046;-67
2023/03/05 00:08:06;;;;;;;4.53;1.65;;;6.30;99.90;;;6.08;100.00;101526.25;5140898;28;20165;-68
2023/03/05 00:10:38;;;;;;;6.57;1.90;;;6.30;99.90;;;6.07;100.00;101527.94;5149436;28;20054;-68
2023/03/05 00:13:10;;;;;;;3.17;1.30;;;6.30;99.90;;;6.04;100.00;101526.84;5141901;28;20407;-67
2023/03/05 00:15:42;;;;;;;7.95;1.58;;;6.30;99.90;;;6.03;100.00;101525.06;5141517;28;20496;-67
2023/03/05 00:18:16;;;;;;;5.93;1.88;;;6.30;99.90;;;6.00;100.00;101530.94;5149993;28;20157;-67
2023/03/05 00:20:48;;;;;;;5.65;1.45;;;6.30;99.90;;;5.98;100.00;101527.31;5140640;28;20051;-67
2023/03/05 00:23:20;;;;;;;8.45;1.80;;;6.30;99.90;;;5.96;100.00;101524.66;5145020;28;20134;-68
2023/03/05 00:25:53;;;;;;;7.38;1.65;;;6.30;99.90;;;5.99;100.00;101524.84;5144715;28;20508;-67
2023/03/05 00:28:25;;;;;;;3.50;1.60;;;6.20;99.90;;;6.01;100.00;101519.78;5144764;28;20047;-66
2023/03/05 00:31:01;;;;;;;5.22;1.88;;;6.30;99.90;;;6.01;100.00;101524.97;5142331;28;20055;-67
2023/03/05 00:33:34;;;;;;;6.75;1.73;;;6.20;99.90;;;5.98;100.00;101516.97;5144272;28;20070;-68
2023/03/05 00:36:08;;;;;;;5.10;1.25;;;6.20;99.90;;;5.97;100.00;101520.38;5140880;28;20054;-67
2023/03/05 00:38:40;;;;;;;4.40;1.88;;;6.20;99.90;;;5.97;100.00;101522.94;5144481;28;20519;-66
2023/03/05 00:41:13;;;;;;;6.18;1.75;;;6.20;99.90;;;5.95;100.00;101511.63;5161197;28;20053;-67
2023/03/05 00:43:48;;;;;;;5.93;1.65;;;6.20;99.90;;;5.91;100.00;101519.97;5145384;28;20038;-67
2023/03/05 00:46:20;;;;;;;9.07;1.73;;;6.20;99.90;;;5.87;100.00;101512.78;5143797;28;20050;-68
2023/03/05 00:48:54;;;;;;;6.55;1.77;;;6.20;99.90;;;5.85;100.00;101509.19;5143909;28;20045;-67
2023/03/05 00:51:27;;;;;;;3.03;1.80;;;6.10;99.90;;;5.86;100.00;101505.78;5144598;28;20463;-66
2023/03/05 00:54:00;;;;;;;5.97;1.67;;;6.10;99.90;;;5.86;100.00;101505.78;5146394;28;20051;-67
2023/03/05 00:56:32;;;;;;;7.72;1.95;;;6.10;99.90;;;5.86;100.00;101506.69;5142899;28;20105;-67
2023/03/05 00:59:04;;;;;;;5.25;1.90;;;6.10;99.90;;;5.83;100.00;101497.84;5143912;28;20135;-67
2023/03/05 01:01:36;;;;;;;4.88;1.85;;;6.10;99.90;;;5.83;100.00;101500.44;5143970;28;20035;-66
2023/03/05 01:04:10;;;;;;;6.85;1.65;;;6.10;99.90;;;5.79;100.00;101490.66;5155554;28;20513;-67
2023/03/05 01:06:44;;;;;;;5.25;2.05;;;6.10;99.90;;;5.77;100.00;101502.63;5146273;28;20054;-67
2023/03/05 01:09:20;;;;;;;2.00;1.17;;;6.00;99.90;;;5.73;100.00;101493.75;5142986;28;20045;-66
2023/03/05 01:11:54;;;;;;;5.10;1.42;;;6.00;99.90;;;5.71;100.00;101495.34;5160623;28;20055;-68
2023/03/05 01:14:27;;;;;;;5.25;1.20;;;6.00;99.90;;;5.71;100.00;101480.72;5158190;28;20067;-68
2023/03/05 01:16:59;;;;;;;4.63;1.40;;;6.00;99.90;;;5.74;100.00;101492.97;5145233;28;20062;-66
2023/03/05 01:19:33;;;;;;;2.65;1.30;;;6.00;99.90;;;5.73;100.00;101473.94;5149392;28;20053;-67
2023/03/05 01:22:06;;;;;;;2.55;0.90;;;6.00;99.90;;;5.73;100.00;101481.72;5143579;28;20043;-68
2023/03/05 01:24:38;;;;;;;4.65;1.30;;;6.00;99.90;;;5.75;100.00;101481.84;5142364;28;20121;-66
2023/03/05 01:27:10;;;;;;;4.35;1.70;;;6.00;99.90;;;5.76;100.00;101477.56;5143742;28;20472;-67
2023/03/05 01:29:42;;;;;;;3.58;1.35;;;6.00;99.90;;;5.76;100.00;101474.97;5158326;28;20039;-67
2023/03/05 01:32:16;;;;;;;3.15;1.13;;;6.00;99.90;;;5.76;100.00;101472.38;5142445;28;20049;-66
2023/03/05 01:34:49;;;;;;;3.28;1.17;;;6.00;99.90;;;5.77;100.00;101479.34;5142484;28;20512;-66
2023/03/05 01:37:21;;;;;;;1.88;1.15;;;6.00;99.90;;;5.77;100.00;101469.00;5141718;28;20047;-67
2023/03/05 01:39:54;;;;;;;5.22;1.45;;;6.00;99.90;;;5.76;100.00;101469.78;5143292;28;20319;-67
2023/03/05 01:42:26;;;;;;;3.40;1.10;;;6.00;99.90;;;5.73;100.00;101463.59;5143966;28;20532;-67
2023/03/05 01:45:12;;;;;;;3.28;1.63;;;6.00;99.90;;;5.72;100.00;101459.22;5145628;28;20055;-67
2023/03/05 01:47:45;;;;;;;3.05;1.33;;;6.00;99.90;;;5.73;100.00;101463.59;5143069;28;20093;-66
2023/03/05 01:50:23;;;;;;;4.00;1.50;;;6.00;99.90;;;5.73;100.00;101454.94;5142642;28;20130;-66
2023/03/05 01:53:00;;;;;;;4.05;1.10;;;5.90;99.90;;;5.76;100.00;101456.84;5143207;28;20042;-66
2023/03/05 01:55:36;;;;;;;2.85;1.35;;;5.90;99.90;;;5.73;100.00;101455.84;5158202;28;20035;-67
2023/03/05 01:58:12;;;;;;;3.13;1.20;;;5.90;99.90;;;5.71;100.00;101449.69;5141554;28;20046;-67
2023/03/05 02:00:48;;;;;;;4.63;1.23;;;6.00;99.90;;;5.71;100.00;101441.91;5141767;28;20077;-65
2023/03/05 02:03:22;;;;;;;5.07;1.55;;;5.90;99.90;;;5.73;100.00;101442.91;5142461;28;20046;-68
2023/03/05 02:05:56;;;;;;;4.28;1.05;;;5.90;99.90;;;5.72;100.00;101435.94;5142503;28;20065;-68
2023/03/05 02:08:30;;;;;;;1.95;1.15;;;5.90;99.90;;;5.71;100.00;101426.41;5137544;28;20121;-67
2023/03/05 02:11:03;;;;;;;4.68;1.10;;;5.90;99.90;;;5.71;100.00;101435.84;5150104;28;20214;-66
2023/03/05 02:13:39;;;;;;;2.10;0.90;;;5.90;99.90;;;5.68;100.00;101433.09;5150212;28;20404;-67
2023/03/05 02:16:11;;;;;;;4.07;1.00;;;5.90;99.90;;;5.66;100.00;101430.38;5137648;28;20134;-66
2023/03/05 02:18:44;;;;;;;6.18;1.33;;;5.80;99.90;;;5.67;100.00;101424.44;5146598;28;20533;-66
2023/03/05 02:21:28;;;;;;;4.30;0.93;;;5.90;99.90;;;5.68;100.00;101418.44;5141382;28;20779;-66
2023/03/05 02:24:00;;;;;;;2.88;0.70;;;5.80;99.90;;;5.66;100.00;101420.03;5145026;28;20098;-66
2023/03/05 02:26:32;;;;;;;2.08;0.80;;;5.90;99.90;;;5.66;100.00;101414.84;5153947;28;20401;-69
2023/03/05 02:29:08;;;;;;;2.65;1.10;;;5.80;99.90;;;5.67;100.00;101415.75;5141387;28;20046;-66
2023/03/05 02:31:41;;;;;;;4.80;0.98;;;5.90;99.90;;;5.65;100.00;101412.19;5146213;28;20042;-67
2023/03/05 02:34:14;;;;;;;3.15;1.05;;;5.80;99.90;;;5.64;100.00;101408.69;5152752;28;20050;-67
2023/03/05 02:36:49;;;;;;;4.75;0.85;;;5.80;99.90;;;5.64;100.00;101400.03;5141104;28;20062;-66
2023/03/05 02:39:23;;;;;;;4.28;1.58;;;5.90;99.90;;;5.63;100.00;101399.16;5142571;28;20479;-66
2023/03/05 02:41:55;;;;;;;2.80;1.13;;;5.80;99.90;;;5.60;100.00;101401.53;5140845;28;20479;-68
2023/03/05 02:44:27;;;;;;;2.33;0.77;;;5.80;99.90;;;5.59;100.00;101401.44;5141705;28;20039;-67
2023/03/05 02:47:00;;;;;;;1.27;0.80;;;5.80;99.90;;;5.58;100.00;101389.31;5140664;28;20133;-67
2023/03/05 02:49:32;;;;;;;1.92;1.00;;;5.80;99.90;;;5.57;100.00;101388.41;5138265;28;20056;-65
2023/03/05 02:52:07;;;;;;;3.60;1.25;;;5.80;99.90;;;5.57;100.00;101390.09;5139915;28;20123;-66
2023/03/05 02:54:39;;;;;;;4.15;1.17;;;5.80;99.90;;;5.54;100.00;101387.31;5141504;28;20126;-66
2023/03/05 02:57:11;;;;;;;3.53;1.20;;;5.80;99.90;;;5.51;100.00;101389.72;5141767;28;20049;-66
2023/03/05 02:59:44;;;;;;;2.25;1.00;;;5.80;99.90;;;5.50;100.00;101383.66;5141443;28;20055;-66
2023/03/05 03:02:18;;;;;;;2.88;0.93;;;5.80;99.90;;;5.49;100.00;101379.28;5156993;28;20042;-66
2023/03/05 03:04:50;;;;;;;3.03;1.10;;;5.80;99.90;;;5.47;100.00;101380.84;5140807;28;20043;-67
2023/03/05 03:07:24;;;;;;;4.10;1.20;;;5.80;99.90;;;5.42;100.00;101377.09;5141985;28;20122;-67
2023/03/05 03:09:58;;;;;;;;;;;5.70;99.90;;;5.38;100.00;101380.25;5141724;28;20046;-66
2023/03/05 03:12:31;;;;;;;4.70;1.60;;;5.70;99.90;;;5.34;100.00;101373.09;5201327;23;19930;-68
2023/03/05 03:15:04;;;;;;;2.38;1.00;;;5.70;99.90;;;5.31;100.00;101376.38;5159816;28;20076;-68
2023/03/05 03:17:37;;;;;;;1.30;0.80;;;5.60;99.90;;;5.32;100.00;101378.16;5146655;28;20514;-68
2023/03/05 03:20:14;;;;;;;1.98;0.95;;;5.60;99.90;;;5.34;100.00;101373.97;5129823;28;20500;-68
2023/03/05 03:22:48;;;;;;;2.92;1.23;;;5.60;99.90;;;5.36;100.00;101371.53;5128151;28;20047;-66
2023/03/05 03:25:22;;;;;;;3.97;1.17;;;5.60;99.90;;;5.40;100.00;101369.22;5126576;28;20036;-66
2023/03/05 03:27:57;;;;;;;2.75;0.95;;;5.70;99.90;;;5.42;100.00;101369.34;5121799;28;20043;-67
2023/03/05 03:30:30;;;;;;;2.17;0.93;;;5.70;99.90;;;5.39;100.00;101371.72;5122947;28;20043;-67
2023/03/05 03:33:02;;;;;;;3.22;1.17;;;5.70;99.90;;;5.39;100.00;101366.53;5123993;28;20465;-66
2023/03/05 03:35:34;;;;;;;2.67;1.13;;;5.70;99.90;;;5.37;100.00;101368.13;5136576;28;20039;-68
2023/03/05 03:38:08;;;;;;;5.03;1.10;;;5.70;99.90;;;5.31;100.00;101352.22;5131284;28;20043;-68
2023/03/05 03:40:42;;;;;;;4.35;1.50;;;5.70;99.90;;;5.31;100.00;101357.41;5130989;28;20396;-68
2023/03/05 03:43:14;;;;;;;3.92;1.25;;;5.60;99.90;;;5.29;100.00;101353.81;5131002;28;20039;-69
2023/03/05 03:45:46;;;;;;;2.30;1.00;;;5.60;99.90;;;5.29;100.00;101349.56;5137005;28;20050;-67
2023/03/05 03:48:18;;;;;;;2.95;1.00;;;5.60;99.90;;;5.32;100.00;101348.84;5121389;28;20050;-68
2023/03/05 03:50:50;;;;;;;3.00;1.00;;;5.60;99.90;;;5.35;100.00;101343.88;5124191;28;20043;-68
2023/03/05 03:53:24;;;;;;;2.22;0.85;;;5.60;99.90;;;5.38;100.00;101342.38;5131227;28;20044;-69
2023/03/05 03:55:58;;;;;;;2.83;1.00;;;5.60;99.90;;;5.39;100.00;101336.41;5123003;28;20062;-68
2023/03/05 03:58:31;;;;;;;3.63;1.05;;;5.60;99.90;;;5.37;100.00;101338.00;5132522;28;20046;-68
2023/03/05 04:01:04;;;;;;;5.65;1.10;;;5.60;99.90;;;5.36;100.00;101332.75;5127662;28;20078;-67
2023/03/05 04:03:36;;;;;;;3.40;1.23;;;5.60;99.90;;;5.34;100.00;101335.19;5126177;28;20534;-68
2023/03/05 04:06:09;;;;;;;1.48;1.00;;;5.60;99.90;;;5.34;100.00;101336.91;5126458;28;20043;-67
2023/03/05 04:08:43;;;;;;;3.10;1.10;;;5.60;99.90;;;5.33;100.00;101329.94;5126416;28;20114;-67
2023/03/05 04:11:18;;;;;;;4.10;0.95;;;5.60;99.90;;;5.31;100.00;101326.38;5133716;28;20118;-67
2023/03/05 04:13:50;;;;;;;4.05;1.30;;;5.60;99.90;;;5.34;100.00;101326.56;5125662;28;20463;-67
2023/03/05 04:16:23;;;;;;;3.13;1.30;;;5.60;99.90;;;5.33;100.00;101322.19;5134181;28;20043;-68
2023/03/05 04:18:55;;;;;;;2.40;1.05;;;5.60;99.90;;;5.35;100.00;101315.44;5125691;28;20043;-67
2023/03/05 04:21:29;;;;;;;4.78;1.33;;;5.60;99.90;;;5.35;100.00;101313.75;5139280;28;20111;-68
2023/03/05 04:24:03;;;;;;;3.70;1.20;;;5.60;99.90;;;5.34;100.00;101321.38;5135101;28;20097;-68
2023/03/05 04:26:35;;;;;;;4.53;1.00;;;5.60;99.90;;;5.31;100.00;101313.44;5125929;28;20057;-67
2023/03/05 04:29:07;;;;;;;2.63;1.30;;;5.50;99.90;;;5.29;100.00;101307.28;5132704;28;20047;-67
2023/03/05 04:31:39;;;;;;;4.60;1.40;;;5.50;99.90;;;5.27;100.00;101307.16;5125923;28;20530;-67
2023/03/05 04:34:11;;;;;;;2.88;0.93;;;5.50;99.90;;;5.28;100.00;101308.06;5125973;28;20099;-68
2023/03/05 04:36:43;;;;;;;1.35;1.00;;;5.50;99.90;;;5.28;100.00;101305.47;5125757;28;20086;-68
2023/03/05 04:39:19;;;;;;;4.05;1.25;;;5.50;99.90;;;5.27;100.00;101299.41;5125824;28;20086;-69
2023/03/05 04:41:51;;;;;;;4.60;1.10;;;5.50;99.90;;;5.31;100.00;101296.25;5125277;28;20043;-67
2023/03/05 04:44:24;;;;;;;3.42;1.33;;;5.50;99.90;;;5.34;100.00;101300.69;5133142;28;20488;-68
2023/03/05 04:46:56;;;;;;;5.18;1.00;;;5.50;99.90;;;5.35;100.00;101299.94;5125824;28;20051;-69
2023/03/05 04:49:29;;;;;;;3.67;0.90;;;5.50;99.90;;;5.35;100.00;101297.34;5125647;28;20040;-69
2023/03/05 04:52:01;;;;;;;3.03;0.80;;;5.50;99.90;;;5.32;100.00;101289.38;5125333;28;20047;-69
2023/03/05 04:54:35;;;;;;;1.60;0.68;;;5.50;99.90;;;5.30;100.00;101288.41;5125125;28;20158;-68
2023/03/05 04:57:07;;;;;;;0.85;0.68;;;5.50;99.90;;;5.27;100.00;101288.19;5125824;28;20055;-68
2023/03/05 04:59:40;;;;;;;3.15;0.82;;;5.40;99.90;;;5.26;100.00;101294.16;5125369;28;20031;-67
2023/03/05 05:02:12;;;;;;;2.63;0.80;;;5.40;99.90;;;5.23;100.00;101283.63;5125156;28;20047;-68
2023/03/05 05:04:45;;;;;;;2.65;0.90;;;5.40;99.90;;;5.21;100.00;101282.63;5125021;28;20050;-68
2023/03/05 05:07:17;;;;;;;5.93;1.50;;;5.40;99.90;;;5.20;100.00;101280.84;5124502;28;20043;-68
2023/03/05 05:09:51;;;;;;;3.10;1.08;;;5.40;99.90;;;5.17;100.00;101282.44;5132620;28;20038;-68
2023/03/05 05:12:23;;;;;;;3.42;0.80;;;5.40;99.90;;;5.16;100.00;101275.50;5125364;28;20086;-68
2023/03/05 05:14:55;;;;;;;3.72;0.98;;;5.40;99.90;;;5.15;100.00;101272.78;5124469;28;20047;-67
2023/03/05 05:17:29;;;;;;;3.95;1.02;;;5.40;99.90;;;5.14;100.00;101271.88;5125289;28;20070;-70
2023/03/05 05:20:05;;;;;;;1.13;0.80;;;5.40;99.90;;;5.16;100.00;101280.66;5124798;28;20070;-67
2023/03/05 05:22:37;;;;;;;2.78;0.90;;;5.40;99.90;;;5.18;100.00;101273.00;5123623;28;20047;-68
2023/03/05 05:25:11;;;;;;;1.95;1.00;;;5.40;99.90;;;5.20;100.00;101270.50;5124472;28;20046;-68
2023/03/05 05:27:44;;;;;;;2.60;0.95;;;5.40;99.90;;;5.20;100.00;101265.34;5124900;28;20075;-68
2023/03/05 05:30:16;;;;;;;2.90;0.70;;;5.40;99.90;;;5.18;100.00;101263.53;5124764;28;20383;-68
2023/03/05 05:32:49;;;;;;;1.10;0.60;;;5.40;99.90;;;5.20;100.00;101265.34;5124537;28;20404;-65
2023/03/05 05:35:21;;;;;;;3.72;1.08;;;5.40;99.90;;;5.19;100.00;101256.69;5116950;28;20050;-66
2023/03/05 05:37:54;;;;;;;5.82;1.20;;;5.40;99.90;;;5.16;100.00;101262.56;5124364;28;20043;-68
2023/03/05 05:40:28;;;;;;;2.15;0.90;;;5.40;99.90;;;5.17;100.00;101264.34;5139530;28;20528;-67
2023/03/05 05:43:00;;;;;;;2.72;1.00;;;5.40;99.90;;;5.19;100.00;101259.28;5123943;28;20077;-67
2023/03/05 05:45:32;;;;;;;1.70;0.80;;;5.40;99.90;;;5.18;100.00;101250.63;5129986;28;20061;-67
2023/03/05 05:48:04;;;;;;;2.58;0.90;;;5.40;99.90;;;5.15;100.00;101254.69;5126342;28;20047;-68
2023/03/05 05:50:39;;;;;;;3.33;0.90;;;5.40;99.90;;;5.14;100.00;101261.56;5124693;28;20054;-68
2023/03/05 05:53:12;;;;;;;3.35;0.95;;;5.40;99.90;;;5.14;100.00;101261.56;5123616;28;20436;-66
2023/03/05 05:55:45;;;;;;;2.95;1.27;;;5.40;99.90;;;5.15;100.00;101263.38;5124435;28;20050;-68
2023/03/05 05:58:18;;;;;;;4.80;1.13;;;5.30;99.90;;;5.15;100.00;101265.03;5124252;28;20041;-67
2023/03/05 06:00:50;;;;;;;3.30;1.10;;;5.40;99.90;;;5.16;100.00;101266.84;5124386;28;20047;-67
2023/03/05 06:03:22;;;;;;;4.28;0.90;;;5.40;99.90;;;5.17;100.00;101256.59;5116835;28;20043;-67
2023/03/05 06:05:54;;;;;;;3.70;1.10;;;5.40;99.90;;;5.18;100.00;101253.22;5123973;28;20039;-68
2023/03/05 06:08:26;;;;;;;2.88;0.85;;;5.40;99.90;;;5.18;100.00;101250.63;5124185;28;20043;-67
2023/03/05 06:11:00;;;;;;;3.33;0.90;;;5.40;99.90;;;5.20;100.00;101260.16;5123562;28;20077;-67
2023/03/05 06:13:32;;;;;;;2.08;0.93;;;5.40;99.90;;;5.21;100.00;101259.34;5123961;28;20043;-68
2023/03/05 06:16:08;;;;;;;1.80;0.85;;;5.40;99.90;;;5.16;100.00;101254.81;5123557;28;20051;-68
2023/03/05 06:18:41;;;;;;;2.72;1.08;;;5.40;99.90;;;5.14;100.00;101261.56;5123089;28;20041;-68
2023/03/05 06:21:16;;;;;;;4.45;1.00;;;5.40;99.90;;;5.11;100.00;101258.78;5138493;28;20043;-67
2023/03/05 06:23:49;;;;;;;5.53;1.50;;;5.30;99.90;;;5.13;100.00;101258.88;5123633;28;20075;-66
2023/03/05 06:26:23;;;;;;;6.05;1.30;;;5.30;99.90;;;5.10;100.00;101259.59;5123581;28;20050;-67
2023/03/05 06:28:56;;;;;;;6.40;1.13;;;5.30;99.90;;;5.09;100.00;101262.09;5138232;28;20049;-69
2023/03/05 06:31:30;;;;;;;3.65;1.17;;;5.30;99.90;;;5.09;100.00;101257.81;5123832;28;20039;-67
2023/03/05 06:34:02;;;;;;;1.77;0.85;;;5.30;99.90;;;5.12;100.00;101267.44;5123460;28;20047;-68
2023/03/05 06:36:34;;;;;;;2.97;0.93;;;5.30;99.90;;;5.15;100.00;101262.44;5123254;28;20047;-67
2023/03/05 06:39:07;;;;;;;2.28;0.90;;;5.30;99.90;;;5.18;100.00;101258.38;5123281;28;20412;-68
2023/03/05 06:41:41;;;;;;;1.00;0.90;;;5.40;99.90;;;5.19;100.00;101254.09;5122263;28;20058;-67
2023/03/05 06:44:13;;;;;;;3.03;0.80;;;5.30;99.90;;;5.21;100.00;101256.78;5122947;28;20130;-66
2023/03/05 06:46:46;;;;;;;3.58;0.82;;;5.40;99.90;;;5.22;100.00;101258.59;5123724;28;20043;-68
2023/03/05 06:49:18;;;;;;;3.33;0.90;;;5.40;99.90;;;5.23;100.00;101244.88;5123049;28;20043;-66
2023/03/05 06:51:50;;;;;;;1.52;0.85;;;5.40;99.90;;;5.24;100.00;101263.03;5137957;28;20039;-68
2023/03/05 06:54:22;;;;;;;3.55;1.00;;;5.40;99.90;;;5.26;100.00;101256.28;5130852;28;20126;-66
2023/03/05 06:56:56;;;;;;;3.45;1.00;;;5.40;99.90;;;5.27;100.00;101254.59;5123362;28;20062;-69
2023/03/05 06:59:28;;;;;;;2.83;1.00;;;5.40;99.90;;;5.26;100.00;101245.03;5123212;28;20511;-68
2023/03/05 07:02:00;;;;;;;3.88;1.40;;;5.40;99.90;;;5.25;100.00;101241.56;5122994;28;20451;-67
2023/03/05 07:04:32;;;;;;;2.58;0.90;;;5.40;99.90;;;5.26;100.00;101242.47;5122771;28;20526;-60
2023/03/05 07:07:04;;;;;;;5.05;1.13;;;5.40;99.90;;;5.27;100.00;101241.66;5122589;28;20047;-59
2023/03/05 07:09:41;;;;;;;3.03;1.33;;;5.40;99.90;;;5.29;100.00;101240.09;5122908;28;20032;-59
2023/03/05 07:12:15;;;;;;;3.10;1.10;;;5.40;99.90;;;5.33;100.00;101244.63;5122092;28;20576;-60
2023/03/05 07:14:47;;;;;;;4.13;1.50;;;5.50;99.90;;;5.38;100.00;101244.13;5122376;28;20065;-60
2023/03/05 07:17:19;;;;;;;2.13;1.10;;;5.50;99.90;;;5.42;100.00;101237.47;5122396;28;20043;-59
2023/03/05 07:19:51;;;;;;;3.53;1.17;;;5.50;99.90;;;5.41;100.00;101240.81;5122273;28;20051;-59
2023/03/05 07:22:23;;;;;;;3.03;1.15;;;5.60;99.90;;;5.41;100.00;101231.41;5122390;28;20110;-60
2023/03/05 07:24:55;;;;;;;2.35;1.10;;;5.60;99.90;;;5.45;100.00;101232.47;5121639;28;20046;-59
2023/03/05 07:27:29;;;;;;;5.03;1.45;;;5.60;99.90;;;5.47;100.00;101225.69;5122526;28;20050;-60
2023/03/05 07:30:01;;;;;;;3.75;1.50;;;5.60;99.90;;;5.50;100.00;101228.50;5122704;28;20047;-60
2023/03/05 07:32:35;;;;;;;3.13;1.25;;;5.60;99.90;;;5.53;100.00;101226.06;5126532;28;20047;-60
2023/03/05 07:35:09;;;;;;;4.68;1.23;;;5.60;99.90;;;5.56;100.00;101228.88;5125819;28;20043;-60
2023/03/05 07:37:41;;;;;;;4.32;2.28;;;5.70;99.90;;;5.57;100.00;101233.22;5126695;28;20070;-61
2023/03/05 07:40:13;;;;;;;2.63;1.52;;;5.70;99.90;;;5.57;100.00;101222.00;5126208;28;20319;-60
2023/03/05 07:42:47;;;;;;;4.55;1.60;;;5.70;99.90;;;5.58;100.00;101229.84;5133981;28;20043;-59
2023/03/05 07:45:28;;;;;;;5.43;1.98;;;5.70;99.90;;;5.61;100.00;101224.88;5124797;28;20050;-60
2023/03/05 07:48:00;;;;;;;5.05;1.35;;;5.80;99.90;;;5.64;100.00;101227.63;5141580;28;20046;-57
2023/03/05 07:50:32;;;;;;;5.65;1.80;;;5.80;99.90;;;5.70;100.00;101224.53;5133723;28;20066;-57
2023/03/05 07:53:05;;;;;;;5.05;2.17;;;5.80;99.90;;;5.76;100.00;101231.78;5134485;28;20412;-57
2023/03/05 07:55:43;;;;;;;6.22;1.65;;;5.80;99.90;;;5.81;100.00;101233.84;5132409;28;20069;-57
2023/03/05 07:58:17;;;;;;;6.55;1.85;;;5.90;99.90;;;5.84;100.00;101233.13;5125847;28;20512;-57
2023/03/05 08:00:50;;;;;;;7.07;2.20;;;5.90;99.90;;;5.82;100.00;101229.56;5126044;28;20047;-58
2023/03/05 08:03:22;;;;;;;5.05;1.70;;;6.00;99.90;;;5.86;100.00;101226.34;5125357;28;20043;-57
2023/03/05 08:05:54;;;;;;;3.63;1.60;;;5.90;99.90;;;5.97;100.00;101217.56;5125797;28;20058;-58
2023/03/05 08:08:26;;;;;;;3.22;1.60;;;6.00;99.90;;;6.07;100.00;101219.94;5133707;28;20044;-59
2023/03/05 08:11:04;;;;;;;4.70;1.90;;;6.10;99.90;;;6.15;100.00;101216.09;5125577;28;20078;-58
2023/03/05 08:13:38;;;;;;;3.10;1.48;;;6.20;99.90;;;6.22;100.00;101215.66;5125461;28;20070;-57
2023/03/05 08:16:14;;;;;;;2.97;1.30;;;6.30;99.90;;;6.25;100.00;101212.31;5125492;28;20054;-58
2023/03/05 08:18:47;;;;;;;7.28;1.85;;;6.30;99.90;;;6.23;100.00;101212.25;5125795;28;20053;-58
2023/03/05 08:21:21;;;;;;;3.97;1.50;;;6.30;99.90;;;6.27;100.00;101202.09;5125697;28;20039;-58
2023/03/05 08:23:53;;;;;;;3.10;1.70;;;6.40;99.90;;;6.32;100.00;101208.41;5125150;28;20500;-58
2023/03/05 08:26:29;;;;;;;4.32;1.73;;;6.40;99.90;;;6.35;100.00;101199.13;5125129;28;20050;-59
2023/03/05 08:29:03;;;;;;;5.93;1.88;;;6.40;99.90;;;6.35;100.00;101199.13;5139833;28;20051;-58
2023/03/05 08:31:36;;;;;;;5.28;1.70;;;6.50;99.90;;;6.34;100.00;101199.03;5117767;28;20079;-58
2023/03/05 08:34:08;;;;;;;9.05;2.45;;;6.40;99.90;;;6.35;100.00;101193.94;5128624;28;20051;-59
2023/03/05 08:36:40;;;;;;;3.83;1.65;;;6.50;99.90;;;6.32;100.00;101195.44;5125106;28;20519;-58
2023/03/05 08:39:12;;;;;;;3.65;1.48;;;6.50;99.90;;;6.40;100.00;101186.47;5124844;28;20365;-59
2023/03/05 08:41:44;;;;;;;4.05;1.48;;;6.50;99.90;;;6.57;100.00;101193.47;5123950;28;20507;-58
2023/03/05 08:44:17;;;;;;;4.72;1.60;;;6.70;99.90;;;6.68;100.00;101187.22;5124423;28;20051;-59
2023/03/05 08:46:49;;;;;;;7.07;1.73;;;6.80;99.90;;;6.83;100.00;101186.28;5125135;28;20049;-60
2023/03/05 08:49:23;;;;;;;3.80;1.33;;;6.90;99.90;;;7.00;100.00;101188.13;5124785;28;20515;-58
2023/03/05 08:51:55;;;;;;;5.60;1.60;;;7.10;99.90;;;7.21;100.00;101183.22;5125247;28;20054;-60
2023/03/05 08:54:27;;;;;;;5.15;1.50;;;7.30;99.90;;;7.29;100.00;101181.91;5124397;28;20500;-57
2023/03/05 08:56:59;;;;;;;5.30;1.70;;;7.40;99.90;;;7.19;100.00;101182.25;5125203;28;20047;-57
2023/03/05 08:59:32;;;;;;;5.97;1.70;;;7.30;99.90;;;7.03;100.00;101188.28;5124757;28;20042;-57
2023/03/05 09:02:04;;;;;;;5.78;1.88;;;7.20;99.90;;;6.88;100.00;101179.66;5124625;28;20448;-58
2023/03/05 09:04:37;;;;;;;6.47;1.48;;;7.10;99.90;;;6.77;100.00;101179.94;5124307;28;20047;-57
2023/03/05 09:07:10;;;;;;;5.13;1.67;;;7.00;99.90;;;6.66;100.00;101169.81;5124271;28;20073;-58
2023/03/05 09:09:42;;;;;;;7.22;1.90;;;6.80;99.90;;;6.52;100.00;101172.50;5123457;28;20122;-59
2023/03/05 09:12:14;;;;;;;5.22;1.65;;;6.70;99.90;;;6.41;100.00;101171.00;5163002;23;20051;-84
2023/03/05 09:14:48;;;;;;;6.82;1.70;;;6.60;99.90;;;6.36;100.00;101175.00;5145138;28;20210;-82
2023/03/05 09:17:20;;;;;;;7.10;2.00;;;6.60;99.90;;;6.33;100.00;101169.69;5154718;28;20047;-82
2023/03/05 09:19:52;;;;;;;4.72;1.77;;;6.50;99.90;;;6.33;100.00;101163.59;5166896;28;20147;-86
2023/03/05 09:22:24;;;;;;;4.45;1.92;;;6.50;99.90;;;6.36;100.00;101166.34;5143031;28;20077;-86
2023/03/05 09:24:57;;;;;;;4.78;1.55;;;6.50;99.90;;;6.40;100.00;101165.75;5143603;28;20047;-85
2023/03/05 09:27:29;;;;;;;7.75;2.28;;;6.50;99.90;;;6.37;100.00;101156.06;5152666;28;20078;-87
2023/03/05 09:30:03;;;;;;;10.80;2.65;;;6.50;99.90;;;6.31;100.00;101154.84;5157450;28;20046;-87
2023/03/05 09:32:35;;;;;;;4.70;1.98;;;6.50;99.90;;;6.21;100.00;101151.72;5152095;28;20055;-85
2023/03/05 09:35:09;;;;;;;7.72;2.40;;;6.40;99.90;;;6.20;100.00;101152.53;5146328;28;20051;-86
2023/03/05 09:37:42;;;;;;;12.02;3.00;;;6.40;99.90;;;6.21;100.00;101145.66;5152971;28;20057;-85
2023/03/05 09:40:18;;;;;;;8.15;2.33;;;6.40;99.90;;;6.15;100.00;101143.59;5160112;28;20266;-88
2023/03/05 09:43:07;;;;;;;11.68;3.17;;;6.40;99.90;;;6.17;100.00;101148.88;5164059;28;20038;-86
2023/03/05 09:45:47;;;;;;;6.90;2.63;;;6.30;99.90;;;6.21;100.00;101138.78;5128623;28;20055;-86
2023/03/05 09:48:25;;;;;;;7.20;2.20;;;6.40;99.90;;;6.33;100.00;101132.53;5151781;28;20054;-86
2023/03/05 09:51:03;;;;;;;9.77;2.88;;;6.50;99.90;;;6.40;100.00;101132.97;5144262;28;20051;-86
2023/03/05 09:53:44;;;;;;;8.60;2.88;;;6.50;99.90;;;6.45;100.00;101131.50;5145609;28;20047;-88
2023/03/05 09:56:21;;;;;;;7.10;2.60;;;6.60;99.90;;;6.52;100.00;101128.47;5140437;28;20055;-86
2023/03/05 09:58:56;;;;;;;7.72;2.75;;;6.60;99.90;;;6.63;100.00;101131.66;5134618;28;20062;-85
2023/03/05 10:01:38;;;;;;;9.02;3.90;;;6.70;99.90;;;6.68;100.00;101119.84;5146171;28;20509;-88
2023/03/05 10:04:16;;;;;;;7.60;3.10;;;6.70;99.90;;;6.73;100.00;101126.19;5151575;28;20057;-85
2023/03/05 10:06:55;;;;;;;8.88;3.17;;;6.80;99.90;;;6.89;100.00;101119.25;5150665;28;20123;-86
2023/03/05 10:09:42;;;;;;;7.45;3.00;;;6.90;99.90;;;7.04;100.00;101117.47;5149584;28;20043;-86
2023/03/05 10:12:26;;;;;;;8.98;3.33;;;7.00;99.90;;;7.22;100.00;101113.28;5142321;28;20055;-88
2023/03/05 10:14:59;;;;;;;9.30;3.97;;;7.20;99.90;;;7.27;100.00;101114.41;5130986;28;20134;-85
2023/03/05 10:17:58;;;;;;;9.20;4.03;;;7.20;99.90;;;7.33;100.00;101109.56;5148681;28;20050;-87
2023/03/05 10:20:59;;;;;;;9.90;3.80;;;7.30;99.90;;;7.51;100.00;101106.16;5157540;28;20039;-88
2023/03/05 10:24:00;;;;;;;7.18;3.20;;;7.40;99.90;;;7.68;100.00;101099.22;5151608;28;20066;-87
2023/03/05 10:26:47;;;;;;;8.57;3.70;;;7.60;99.90;;;7.73;99.13;101090.88;5144550;28;20061;-86
2023/03/05 10:29:56;;;;;;;6.75;3.28;;;7.70;99.90;;;7.74;97.63;101083.97;5138340;28;20058;-83
2023/03/05 10:32:42;;;;;;;9.73;3.50;;;7.70;99.90;;;7.56;96.93;101077.06;5089278;28;20062;-84
2023/03/05 10:35:49;;;;;;;9.50;3.45;;;7.70;99.90;;;7.39;97.34;101087.34;5134617;28;20043;-84
2023/03/05 10:38:53;;;;;;;7.88;2.95;;;7.50;99.90;;;7.17;97.94;101078.47;5133033;28;20402;-82
2023/03/05 10:41:31;;;;;;;5.13;2.80;;;7.30;99.90;;;6.98;98.48;101071.41;5134490;28;20135;-82
2023/03/05 10:44:11;;;;;;;8.45;2.95;;;7.20;99.90;;;6.88;98.88;101079.47;5134676;28;20047;-81
2023/03/05 10:46:46;;;;;;;7.40;2.70;;;7.10;99.90;;;6.70;100.00;101073.28;5149448;28;20046;-84
2023/03/05 10:49:21;;;;;;;10.23;2.92;;;6.90;99.90;;;6.52;100.00;101078.38;5143718;28;20057;-82